createdAt,value
2023-08-15T00:00:21.868Z,20.85
2023-08-15T00:01:21.872Z,20.87
2023-08-15T00:02:21.846Z,20.87
2023-08-15T00:03:21.879Z,20.90
2023-08-15T00:04:21.817Z,20.91
2023-08-15T00:05:21.804Z,20.91
2023-08-15T00:06:21.805Z,20.93
2023-08-15T00:07:22.055Z,20.94
2023-08-15T00:08:21.783Z,20.96
2023-08-15T00:09:21.763Z,20.97
2023-08-15T00:10:21.756Z,20.97
2023-08-15T00:11:21.746Z,20.97
2023-08-15T00:12:21.735Z,20.97
2023-08-15T00:13:21.714Z,20.96
2023-08-15T00:14:21.752Z,20.96
2023-08-15T00:15:21.700Z,20.94
2023-08-15T00:16:21.729Z,20.94
2023-08-15T00:17:21.873Z,20.93
2023-08-15T00:18:21.664Z,20.91
2023-08-15T00:19:21.648Z,20.93
2023-08-15T00:20:21.652Z,20.91
2023-08-15T00:21:21.630Z,20.91
2023-08-15T00:22:21.623Z,20.91
2023-08-15T00:23:21.653Z,20.90
2023-08-15T00:24:21.612Z,20.90
2023-08-15T00:25:21.596Z,20.90
2023-08-15T00:26:21.582Z,20.91
2023-08-15T00:27:21.819Z,20.88
2023-08-15T00:28:21.561Z,20.88
2023-08-15T00:29:21.549Z,20.88
2023-08-15T00:30:21.548Z,20.90
2023-08-15T00:31:21.550Z,20.87
2023-08-15T00:32:21.517Z,20.85
2023-08-15T00:33:21.499Z,20.82
2023-08-15T00:34:21.501Z,20.82
2023-08-15T00:35:21.478Z,20.82
2023-08-15T00:36:21.475Z,20.83
2023-08-15T00:37:21.614Z,20.83
2023-08-15T00:38:21.494Z,20.82
2023-08-15T00:39:21.444Z,20.79
2023-08-15T00:40:21.431Z,20.78
2023-08-15T00:41:21.422Z,20.78
2023-08-15T00:42:21.407Z,20.76
2023-08-15T00:43:21.408Z,20.76
2023-08-15T00:44:21.392Z,20.75
2023-08-15T00:45:21.395Z,20.75
2023-08-15T00:46:21.401Z,20.75
2023-08-15T00:47:21.645Z,20.73
2023-08-15T00:48:21.342Z,20.72
2023-08-15T00:49:21.333Z,20.73
2023-08-15T00:50:21.321Z,20.72
2023-08-15T00:51:21.306Z,20.69
2023-08-15T00:52:21.296Z,20.68
2023-08-15T00:53:21.293Z,20.64
2023-08-15T00:54:21.285Z,20.63
2023-08-15T00:55:21.256Z,20.60
2023-08-15T00:56:21.254Z,20.57
2023-08-15T00:57:21.481Z,20.54
2023-08-15T00:58:21.241Z,20.54
2023-08-15T00:59:21.220Z,20.51
2023-08-15T01:00:21.242Z,20.50
2023-08-15T01:01:21.216Z,20.44
2023-08-15T01:02:21.204Z,20.41
2023-08-15T01:03:21.218Z,20.38
2023-08-15T01:04:21.172Z,20.35
2023-08-15T01:05:21.154Z,20.33
2023-08-15T01:06:21.142Z,20.31
2023-08-15T01:07:21.309Z,20.30
2023-08-15T01:08:21.129Z,20.27
2023-08-15T01:09:21.105Z,20.26
2023-08-15T01:10:21.110Z,20.23
2023-08-15T01:11:21.083Z,20.20
2023-08-15T01:12:21.132Z,20.17
2023-08-15T01:13:21.084Z,20.16
2023-08-15T01:14:21.097Z,20.13
2023-08-15T01:15:21.038Z,20.12
2023-08-15T01:16:21.057Z,20.10
2023-08-15T01:17:21.219Z,20.08
2023-08-15T01:18:21.010Z,20.07
2023-08-15T01:19:20.992Z,20.07
2023-08-15T01:20:20.985Z,20.07
2023-08-15T01:21:20.983Z,20.05
2023-08-15T01:22:20.981Z,20.05
2023-08-15T01:23:20.959Z,20.02
2023-08-15T01:24:20.946Z,20.04
2023-08-15T01:25:20.931Z,20.02
2023-08-15T01:26:20.955Z,20.05
2023-08-15T01:27:21.188Z,20.04
2023-08-15T01:28:20.897Z,20.05
2023-08-15T01:29:20.884Z,20.07
2023-08-15T01:30:20.874Z,20.07
2023-08-15T01:31:20.873Z,20.07
2023-08-15T01:32:20.865Z,20.07
2023-08-15T01:33:20.863Z,20.07
2023-08-15T01:34:20.835Z,20.07
2023-08-15T01:35:20.845Z,20.07
2023-08-15T01:36:20.821Z,20.05
2023-08-15T01:37:21.029Z,20.07
2023-08-15T01:38:20.786Z,20.07
2023-08-15T01:39:20.776Z,20.05
2023-08-15T01:40:20.774Z,20.04
2023-08-15T01:41:20.747Z,20.01
2023-08-15T01:42:20.741Z,20.01
2023-08-15T01:43:20.726Z,19.98
2023-08-15T01:44:20.724Z,19.97
2023-08-15T01:45:20.719Z,19.92
2023-08-15T01:46:20.768Z,19.90
2023-08-15T01:47:20.804Z,19.87
2023-08-15T01:48:20.675Z,19.87
2023-08-15T01:49:20.671Z,19.85
2023-08-15T01:50:20.669Z,19.83
2023-08-15T01:51:20.649Z,19.79
2023-08-15T01:52:20.805Z,19.78
2023-08-15T01:53:20.620Z,19.76
2023-08-15T01:54:20.623Z,19.71
2023-08-15T01:55:20.607Z,19.70
2023-08-15T01:56:20.589Z,19.68
2023-08-15T01:57:20.831Z,19.67
2023-08-15T01:58:20.562Z,19.65
2023-08-15T01:59:20.558Z,19.64
2023-08-15T02:00:20.545Z,19.62
2023-08-15T02:01:20.555Z,19.62
2023-08-15T02:02:20.610Z,19.64
2023-08-15T02:03:20.502Z,19.64
2023-08-15T02:04:20.508Z,19.65
2023-08-15T02:05:20.505Z,19.65
2023-08-15T02:06:20.478Z,19.64
2023-08-15T02:07:20.704Z,19.62
2023-08-15T02:08:20.463Z,19.64
2023-08-15T02:09:20.448Z,19.61
2023-08-15T02:10:20.429Z,19.61
2023-08-15T02:11:20.464Z,19.61
2023-08-15T02:12:20.406Z,19.60
2023-08-15T02:13:20.481Z,19.58
2023-08-15T02:14:20.397Z,19.58
2023-08-15T02:15:20.373Z,19.60
2023-08-15T02:16:20.416Z,19.57
2023-08-15T02:17:20.636Z,19.57
2023-08-15T02:18:20.354Z,19.53
2023-08-15T02:19:20.326Z,19.52
2023-08-15T02:20:20.321Z,19.53
2023-08-15T02:21:20.314Z,19.52
2023-08-15T02:22:20.312Z,19.53
2023-08-15T02:23:20.294Z,19.53
2023-08-15T02:24:20.276Z,19.52
2023-08-15T02:25:20.286Z,19.52
2023-08-15T02:26:20.259Z,19.50
2023-08-15T02:27:20.471Z,19.47
2023-08-15T02:28:20.228Z,19.46
2023-08-15T02:29:20.217Z,19.46
2023-08-15T02:30:20.210Z,19.45
2023-08-15T02:31:20.292Z,19.45
2023-08-15T02:32:20.198Z,19.43
2023-08-15T02:33:20.191Z,19.40
2023-08-15T02:34:20.169Z,19.39
2023-08-15T02:35:20.251Z,19.39
2023-08-15T02:36:20.165Z,19.39
2023-08-15T02:37:20.475Z,19.38
2023-08-15T02:38:20.119Z,19.38
2023-08-15T02:39:20.109Z,19.34
2023-08-15T02:40:20.100Z,19.34
2023-08-15T02:41:20.097Z,19.31
2023-08-15T02:42:20.083Z,19.31
2023-08-15T02:43:20.058Z,19.31
2023-08-15T02:44:20.051Z,19.31
2023-08-15T02:45:20.045Z,19.31
2023-08-15T02:46:20.086Z,19.31
2023-08-15T02:47:20.261Z,19.31
2023-08-15T02:48:20.017Z,19.28
2023-08-15T02:49:19.997Z,19.28
2023-08-15T02:50:19.981Z,19.27
2023-08-15T02:51:19.990Z,19.25
2023-08-15T02:52:19.961Z,19.24
2023-08-15T02:53:19.956Z,19.24
2023-08-15T02:54:19.943Z,19.23
2023-08-15T02:55:19.947Z,19.23
2023-08-15T02:56:19.922Z,19.20
2023-08-15T02:57:20.141Z,19.20
2023-08-15T02:58:19.917Z,19.21
2023-08-15T02:59:19.903Z,19.20
2023-08-15T03:00:19.890Z,19.20
2023-08-15T03:01:19.902Z,19.20
2023-08-15T03:02:19.866Z,19.20
2023-08-15T03:03:19.868Z,19.20
2023-08-15T03:04:19.823Z,19.21
2023-08-15T03:05:19.829Z,19.21
2023-08-15T03:06:19.808Z,19.20
2023-08-15T03:07:20.159Z,19.20
2023-08-15T03:08:19.783Z,19.21
2023-08-15T03:09:19.791Z,19.21
2023-08-15T03:10:19.782Z,19.20
2023-08-15T03:11:19.758Z,19.21
2023-08-15T03:12:19.743Z,19.20
2023-08-15T03:13:19.731Z,19.21
2023-08-15T03:14:19.730Z,19.20
2023-08-15T03:15:19.723Z,19.17
2023-08-15T03:16:19.728Z,19.20
2023-08-15T03:17:20.166Z,19.23
2023-08-15T03:18:19.673Z,19.25
2023-08-15T03:19:19.683Z,19.27
2023-08-15T03:20:19.654Z,19.28
2023-08-15T03:21:19.643Z,19.31
2023-08-15T03:22:19.629Z,19.34
2023-08-15T03:23:19.636Z,19.38
2023-08-15T03:24:19.626Z,19.39
2023-08-15T03:25:19.604Z,19.42
2023-08-15T03:26:19.591Z,19.43
2023-08-15T03:27:19.639Z,19.46
2023-08-15T03:28:19.572Z,19.47
2023-08-15T03:29:19.570Z,19.49
2023-08-15T03:30:19.538Z,19.50
2023-08-15T03:31:19.607Z,19.53
2023-08-15T03:32:19.548Z,19.55
2023-08-15T03:33:19.518Z,19.55
2023-08-15T03:34:19.511Z,19.57
2023-08-15T03:35:22.339Z,19.58
2023-08-15T03:36:19.486Z,19.60
2023-08-15T03:37:19.713Z,19.61
2023-08-15T03:38:19.468Z,19.61
2023-08-15T03:39:19.442Z,19.64
2023-08-15T03:40:19.433Z,19.65
2023-08-15T03:41:19.426Z,19.65
2023-08-15T03:42:19.421Z,19.67
2023-08-15T03:43:19.402Z,19.68
2023-08-15T03:44:19.390Z,19.70
2023-08-15T03:45:19.454Z,19.70
2023-08-15T03:46:19.462Z,19.71
2023-08-15T03:47:19.854Z,19.71
2023-08-15T03:48:19.343Z,19.72
2023-08-15T03:49:19.330Z,19.72
2023-08-15T03:50:19.329Z,19.71
2023-08-15T03:51:38.015Z,19.72
2023-08-15T03:52:19.320Z,19.72
2023-08-15T03:53:19.285Z,19.76
2023-08-15T03:54:19.286Z,19.76
2023-08-15T03:55:19.270Z,19.79
2023-08-15T03:56:19.266Z,19.79
2023-08-15T03:57:19.547Z,19.82
2023-08-15T03:58:19.233Z,19.83
2023-08-15T03:59:19.217Z,19.85
2023-08-15T04:00:19.209Z,19.86
2023-08-15T04:01:19.252Z,19.87
2023-08-15T04:02:19.184Z,19.89
2023-08-15T04:03:19.178Z,19.87
2023-08-15T04:04:19.190Z,19.87
2023-08-15T04:05:19.161Z,19.87
2023-08-15T04:06:19.160Z,19.90
2023-08-15T04:07:19.525Z,19.92
2023-08-15T04:08:19.117Z,19.92
2023-08-15T04:09:19.104Z,19.92
2023-08-15T04:10:19.104Z,19.94
2023-08-15T04:11:19.088Z,19.92
2023-08-15T04:12:19.154Z,19.92
2023-08-15T04:13:19.062Z,19.92
2023-08-15T04:14:19.065Z,19.94
2023-08-15T04:15:19.054Z,19.94
2023-08-15T04:16:19.090Z,19.92
2023-08-15T04:17:19.233Z,19.95
2023-08-15T04:18:19.011Z,19.97
2023-08-15T04:19:19.000Z,20.00
2023-08-15T04:20:18.994Z,20.01
2023-08-15T04:21:18.976Z,20.04
2023-08-15T04:22:18.964Z,20.05
2023-08-15T04:23:18.946Z,20.07
2023-08-15T04:24:18.984Z,20.07
2023-08-15T04:25:18.938Z,20.10
2023-08-15T04:26:18.919Z,20.10
2023-08-15T04:27:19.213Z,20.13
2023-08-15T04:28:18.901Z,20.13
2023-08-15T04:29:18.889Z,20.13
2023-08-15T04:30:18.877Z,20.17
2023-08-15T04:31:18.901Z,20.15
2023-08-15T04:32:18.856Z,20.16
2023-08-15T04:33:18.838Z,20.17
2023-08-15T04:34:18.842Z,20.20
2023-08-15T04:35:18.837Z,20.23
2023-08-15T04:36:18.809Z,20.22
2023-08-15T04:37:19.116Z,20.25
2023-08-15T04:38:18.798Z,20.26
2023-08-15T04:39:18.788Z,20.27
2023-08-15T04:40:18.820Z,20.27
2023-08-15T04:41:18.760Z,20.30
2023-08-15T04:42:18.753Z,20.27
2023-08-15T04:43:18.738Z,20.27
2023-08-15T04:44:18.729Z,20.31
2023-08-15T04:45:18.708Z,20.31
2023-08-15T04:46:18.737Z,20.31
2023-08-15T04:47:18.831Z,20.33
2023-08-15T04:48:18.688Z,20.31
2023-08-15T04:49:18.665Z,20.31
2023-08-15T04:50:18.671Z,20.33
2023-08-15T04:51:18.635Z,20.33
2023-08-15T04:52:18.634Z,20.34
2023-08-15T04:53:18.625Z,20.34
2023-08-15T04:54:18.608Z,20.33
2023-08-15T04:55:18.595Z,20.34
2023-08-15T04:56:18.588Z,20.35
2023-08-15T04:57:18.826Z,20.38
2023-08-15T04:58:18.579Z,20.40
2023-08-15T04:59:18.549Z,20.41
2023-08-15T05:00:18.551Z,20.41
2023-08-15T05:01:18.561Z,20.42
2023-08-15T05:02:18.534Z,20.44
2023-08-15T05:03:18.506Z,20.42
2023-08-15T05:04:18.503Z,20.44
2023-08-15T05:05:18.518Z,20.51
2023-08-15T05:06:18.478Z,20.53
2023-08-15T05:07:18.904Z,20.53
2023-08-15T05:08:18.457Z,20.54
2023-08-15T05:09:18.460Z,20.53
2023-08-15T05:10:18.452Z,20.54
2023-08-15T05:11:18.431Z,20.53
2023-08-15T05:12:18.432Z,20.56
2023-08-15T05:13:18.399Z,20.57
2023-08-15T05:14:18.397Z,20.53
2023-08-15T05:15:18.374Z,20.56
2023-08-15T05:16:18.411Z,20.56
2023-08-15T05:17:18.773Z,20.57
2023-08-15T05:18:18.353Z,20.57
2023-08-15T05:19:18.333Z,20.58
2023-08-15T05:20:18.337Z,20.54
2023-08-15T05:21:18.318Z,20.54
2023-08-15T05:22:18.313Z,20.53
2023-08-15T05:23:18.294Z,20.53
2023-08-15T05:24:18.281Z,20.51
2023-08-15T05:25:18.281Z,20.51
2023-08-15T05:26:18.267Z,20.48
2023-08-15T05:27:18.294Z,20.48
2023-08-15T05:28:18.238Z,20.50
2023-08-15T05:29:18.226Z,20.51
2023-08-15T05:30:18.227Z,20.51
2023-08-15T05:31:18.254Z,20.51
2023-08-15T05:32:18.195Z,20.53
2023-08-15T05:33:18.186Z,20.51
2023-08-15T05:34:18.174Z,20.53
2023-08-15T05:35:18.170Z,20.53
2023-08-15T05:36:18.154Z,20.56
2023-08-15T05:37:18.284Z,20.56
2023-08-15T05:38:18.128Z,20.57
2023-08-15T05:39:18.117Z,20.57
2023-08-15T05:40:18.118Z,20.56
2023-08-15T05:41:18.100Z,20.57
2023-08-15T05:42:18.082Z,20.57
2023-08-15T05:43:18.067Z,20.57
2023-08-15T05:44:18.066Z,20.61
2023-08-15T05:45:18.044Z,20.63
2023-08-15T05:46:18.059Z,20.66
2023-08-15T05:47:18.045Z,20.69
2023-08-15T05:48:18.031Z,20.72
2023-08-15T05:49:18.010Z,20.71
2023-08-15T05:50:17.993Z,20.71
2023-08-15T05:51:17.986Z,20.73
2023-08-15T05:52:17.965Z,20.75
2023-08-15T05:53:17.972Z,20.75
2023-08-15T05:54:17.965Z,20.75
2023-08-15T05:55:17.939Z,20.76
2023-08-15T05:56:17.923Z,20.79
2023-08-15T05:57:17.927Z,20.82
2023-08-15T05:58:17.942Z,20.83
2023-08-15T05:59:17.907Z,20.85
2023-08-15T06:00:17.882Z,20.87
2023-08-15T06:01:17.928Z,20.88
2023-08-15T06:02:17.858Z,20.90
2023-08-15T06:03:26.924Z,20.91
2023-08-15T06:04:17.865Z,20.96
2023-08-15T06:05:17.836Z,20.96
2023-08-15T06:06:17.815Z,20.96
2023-08-15T06:07:17.806Z,20.96
2023-08-15T06:08:17.799Z,20.97
2023-08-15T06:09:18.905Z,20.98
2023-08-15T06:10:17.774Z,20.98
2023-08-15T06:11:17.766Z,20.98
2023-08-15T06:12:17.758Z,20.97
2023-08-15T06:13:17.868Z,20.98
2023-08-15T06:14:17.728Z,21.01
2023-08-15T06:15:17.719Z,21.03
2023-08-15T06:16:17.752Z,21.03
2023-08-15T06:17:17.715Z,21.05
2023-08-15T06:18:17.686Z,21.09
2023-08-15T06:19:17.675Z,21.15
2023-08-15T06:20:17.670Z,21.18
2023-08-15T06:21:17.657Z,21.21
2023-08-15T06:22:17.651Z,21.24
2023-08-15T06:23:17.661Z,21.27
2023-08-15T06:24:17.632Z,21.27
2023-08-15T06:25:17.630Z,21.27
2023-08-15T06:26:17.604Z,21.26
2023-08-15T06:27:17.627Z,21.28
2023-08-15T06:28:17.574Z,21.28
2023-08-15T06:29:17.576Z,21.31
2023-08-15T06:30:17.558Z,21.33
2023-08-15T06:31:17.647Z,21.31
2023-08-15T06:32:17.533Z,21.31
2023-08-15T06:33:17.532Z,21.33
2023-08-15T06:34:17.518Z,21.33
2023-08-15T06:35:17.511Z,21.31
2023-08-15T06:36:17.499Z,21.31
2023-08-15T06:37:17.487Z,21.31
2023-08-15T06:38:17.478Z,21.33
2023-08-15T06:39:17.461Z,21.34
2023-08-15T06:40:17.454Z,21.37
2023-08-15T06:41:17.447Z,21.36
2023-08-15T06:42:17.425Z,21.40
2023-08-15T06:43:17.417Z,21.43
2023-08-15T06:44:17.404Z,21.45
2023-08-15T06:45:17.434Z,21.49
2023-08-15T06:46:17.406Z,21.55
2023-08-15T06:47:17.371Z,21.53
2023-08-15T06:48:17.357Z,21.55
2023-08-15T06:49:17.354Z,21.55
2023-08-15T06:50:17.351Z,21.55
2023-08-15T06:51:17.341Z,21.53
2023-08-15T06:52:17.315Z,21.52
2023-08-15T06:53:17.317Z,21.52
2023-08-15T06:54:17.301Z,21.52
2023-08-15T06:55:17.296Z,21.49
2023-08-15T06:56:17.270Z,21.48
2023-08-15T06:57:17.261Z,21.46
2023-08-15T06:58:17.245Z,21.48
2023-08-15T06:59:17.310Z,21.48
2023-08-15T07:00:17.251Z,21.49
2023-08-15T07:01:17.255Z,21.49
2023-08-15T07:02:17.203Z,21.43
2023-08-15T07:03:17.314Z,21.42
2023-08-15T07:04:17.202Z,21.45
2023-08-15T07:05:17.179Z,21.48
2023-08-15T07:06:17.171Z,21.48
2023-08-15T07:07:17.152Z,21.49
2023-08-15T07:08:17.149Z,21.49
2023-08-15T07:09:17.142Z,21.53
2023-08-15T07:10:17.127Z,21.58
2023-08-15T07:11:17.118Z,21.64
2023-08-15T07:12:17.144Z,21.68
2023-08-15T07:13:17.097Z,21.67
2023-08-15T07:14:17.075Z,21.70
2023-08-15T07:15:17.069Z,21.71
2023-08-15T07:16:17.099Z,21.77
2023-08-15T07:17:17.049Z,21.85
2023-08-15T07:18:17.041Z,21.93
2023-08-15T07:19:17.021Z,21.99
2023-08-15T07:20:17.005Z,22.05
2023-08-15T07:21:22.320Z,22.12
2023-08-15T07:22:16.991Z,22.23
2023-08-15T07:23:16.985Z,22.35
2023-08-15T07:24:16.961Z,22.39
2023-08-15T07:25:16.957Z,22.48
2023-08-15T07:26:16.951Z,22.56
2023-08-15T07:27:16.942Z,22.69
2023-08-15T07:28:16.925Z,22.79
2023-08-15T07:29:16.913Z,22.91
2023-08-15T07:30:16.898Z,22.89
2023-08-15T07:31:16.945Z,22.97
2023-08-15T07:32:16.883Z,22.86
2023-08-15T07:33:16.878Z,22.93
2023-08-15T07:34:16.877Z,23.00
2023-08-15T07:35:16.846Z,22.97
2023-08-15T07:36:16.826Z,22.99
2023-08-15T07:37:16.835Z,23.16
2023-08-15T07:38:16.808Z,23.29
2023-08-15T07:39:16.819Z,23.49
2023-08-15T07:40:16.807Z,23.63
2023-08-15T07:41:16.793Z,23.71
2023-08-15T07:42:16.779Z,23.71
2023-08-15T07:43:16.757Z,23.97
2023-08-15T07:44:16.768Z,24.05
2023-08-15T07:45:16.736Z,23.96
2023-08-15T07:46:16.806Z,23.92
2023-08-15T07:47:16.704Z,23.79
2023-08-15T07:48:16.708Z,23.71
2023-08-15T07:49:16.689Z,23.84
2023-08-15T07:50:16.704Z,24.24
2023-08-15T07:51:16.674Z,24.34
2023-08-15T07:52:16.662Z,24.18
2023-08-15T07:53:16.642Z,24.11
2023-08-15T07:54:16.658Z,24.05
2023-08-15T07:55:16.627Z,24.36
2023-08-15T07:56:16.623Z,24.53
2023-08-15T07:57:16.598Z,24.27
2023-08-15T07:58:16.593Z,24.29
2023-08-15T07:59:16.574Z,24.23
2023-08-15T08:00:16.607Z,24.08
2023-08-15T08:01:16.580Z,23.84
2023-08-15T08:02:16.547Z,23.75
2023-08-15T08:03:16.530Z,23.74
2023-08-15T08:04:16.527Z,23.57
2023-08-15T08:05:16.538Z,23.64
2023-08-15T08:06:31.682Z,23.59
2023-08-15T08:07:16.531Z,24.29
2023-08-15T08:08:16.505Z,25.35
2023-08-15T08:09:16.477Z,25.96
2023-08-15T08:10:16.469Z,25.66
2023-08-15T08:11:16.455Z,25.14
2023-08-15T08:12:16.441Z,24.79
2023-08-15T08:13:17.218Z,24.53
2023-08-15T08:14:16.427Z,24.45
2023-08-15T08:15:16.417Z,24.33
2023-08-15T08:16:16.410Z,24.26
2023-08-15T08:17:16.387Z,24.18
2023-08-15T08:18:16.371Z,24.14
2023-08-15T08:19:16.371Z,24.55
2023-08-15T08:20:16.349Z,25.24
2023-08-15T08:21:16.346Z,25.30
2023-08-15T08:22:16.334Z,25.61
2023-08-15T08:23:16.311Z,26.44
2023-08-15T08:24:16.321Z,26.75
2023-08-15T08:25:16.289Z,26.69
2023-08-15T08:26:16.287Z,27.01
2023-08-15T08:27:16.272Z,26.29
2023-08-15T08:28:16.272Z,25.76
2023-08-15T08:29:16.261Z,25.11
2023-08-15T08:30:16.284Z,24.60
2023-08-15T08:31:16.258Z,24.37
2023-08-15T08:32:16.219Z,24.27
2023-08-15T08:33:16.227Z,24.06
2023-08-15T08:34:16.209Z,23.94
2023-08-15T08:35:16.254Z,23.96
2023-08-15T08:36:16.251Z,23.97
2023-08-15T08:37:16.165Z,24.08
2023-08-15T08:38:16.799Z,24.52
2023-08-15T08:39:29.605Z,24.49
2023-08-15T08:40:16.149Z,24.86
2023-08-15T08:41:16.130Z,25.63
2023-08-15T08:42:16.121Z,26.36
2023-08-15T08:43:16.106Z,27.05
2023-08-15T08:44:16.089Z,27.11
2023-08-15T08:45:16.153Z,26.78
2023-08-15T08:46:16.139Z,26.81
2023-08-15T08:47:16.076Z,26.44
2023-08-15T08:48:16.043Z,25.78
2023-08-15T08:49:16.047Z,25.45
2023-08-15T08:50:16.051Z,25.26
2023-08-15T08:51:16.022Z,25.16
2023-08-15T08:52:16.039Z,25.04
2023-08-15T08:53:15.997Z,24.99
2023-08-15T08:54:19.181Z,24.94
2023-08-15T08:55:15.977Z,24.89
2023-08-15T08:56:15.961Z,24.79
2023-08-15T08:57:15.954Z,24.77
2023-08-15T08:58:15.960Z,24.68
2023-08-15T08:59:15.931Z,24.71
2023-08-15T09:00:15.922Z,24.63
2023-08-15T09:01:15.950Z,24.74
2023-08-15T09:02:15.985Z,24.87
2023-08-15T09:03:16.029Z,25.02
2023-08-15T09:04:15.865Z,25.16
2023-08-15T09:05:15.867Z,25.26
2023-08-15T09:06:15.856Z,25.30
2023-08-15T09:07:15.865Z,25.36
2023-08-15T09:08:15.828Z,25.34
2023-08-15T09:09:15.833Z,25.22
2023-08-15T09:10:15.808Z,25.23
2023-08-15T09:11:15.814Z,25.26
2023-08-15T09:12:15.790Z,25.27
2023-08-15T09:13:15.784Z,25.24
2023-08-15T09:14:15.758Z,25.14
2023-08-15T09:15:15.779Z,25.07
2023-08-15T09:16:15.800Z,25.11
2023-08-15T09:17:15.755Z,25.07
2023-08-15T09:18:15.734Z,25.05
2023-08-15T09:19:15.719Z,25.07
2023-08-15T09:20:15.759Z,25.05
2023-08-15T09:21:15.689Z,25.04
2023-08-15T09:22:15.673Z,25.11
2023-08-15T09:23:15.670Z,25.11
2023-08-15T09:24:15.649Z,25.12
2023-08-15T09:25:15.658Z,25.12
2023-08-15T09:26:15.650Z,25.12
2023-08-15T09:27:15.621Z,25.20
2023-08-15T09:28:15.606Z,25.24
2023-08-15T09:29:15.611Z,25.29
2023-08-15T09:30:15.590Z,25.36
2023-08-15T09:31:15.632Z,25.36
2023-08-15T09:32:15.564Z,25.35
2023-08-15T09:33:15.560Z,25.38
2023-08-15T09:34:15.559Z,25.41
2023-08-15T09:35:15.552Z,25.48
2023-08-15T09:36:15.520Z,25.49
2023-08-15T09:37:15.511Z,25.56
2023-08-15T09:38:15.510Z,25.59
2023-08-15T09:39:15.498Z,25.57
2023-08-15T09:40:15.488Z,25.61
2023-08-15T09:41:15.473Z,25.64
2023-08-15T09:42:15.458Z,25.64
2023-08-15T09:43:15.460Z,25.56
2023-08-15T09:44:15.446Z,25.48
2023-08-15T09:45:15.443Z,25.48
2023-08-15T09:46:15.458Z,25.38
2023-08-15T09:47:15.413Z,25.42
2023-08-15T09:48:15.394Z,25.48
2023-08-15T09:49:15.383Z,25.53
2023-08-15T09:50:15.384Z,25.57
2023-08-15T09:51:15.360Z,25.63
2023-08-15T09:52:15.345Z,25.64
2023-08-15T09:53:15.356Z,25.64
2023-08-15T09:54:15.323Z,25.60
2023-08-15T09:55:15.317Z,25.56
2023-08-15T09:56:15.303Z,25.48
2023-08-15T09:57:15.304Z,25.46
2023-08-15T09:58:15.294Z,25.46
2023-08-15T09:59:16.553Z,25.45
2023-08-15T10:00:15.302Z,25.48
2023-08-15T10:01:15.274Z,25.53
2023-08-15T10:02:15.249Z,25.57
2023-08-15T10:03:15.331Z,25.59
2023-08-15T10:04:15.224Z,25.57
2023-08-15T10:05:15.225Z,25.59
2023-08-15T10:06:15.206Z,25.57
2023-08-15T10:07:15.199Z,25.56
2023-08-15T10:08:15.174Z,25.56
2023-08-15T10:09:15.171Z,25.53
2023-08-15T10:10:15.185Z,25.45
2023-08-15T10:11:15.161Z,25.44
2023-08-15T10:12:15.159Z,25.46
2023-08-15T10:13:15.123Z,25.53
2023-08-15T10:14:15.108Z,25.56
2023-08-15T10:15:15.102Z,25.53
2023-08-15T10:16:15.121Z,25.46
2023-08-15T10:17:15.191Z,25.38
2023-08-15T10:18:15.095Z,25.41
2023-08-15T10:19:15.060Z,25.36
2023-08-15T10:20:15.048Z,25.36
2023-08-15T10:21:15.045Z,25.48
2023-08-15T10:22:15.031Z,25.54
2023-08-15T10:23:15.067Z,25.61
2023-08-15T10:24:14.996Z,25.71
2023-08-15T10:25:15.017Z,25.74
2023-08-15T10:26:14.992Z,25.74
2023-08-15T10:27:14.998Z,25.81
2023-08-15T10:28:14.962Z,25.86
2023-08-15T10:29:14.973Z,25.93
2023-08-15T10:30:14.942Z,25.97
2023-08-15T10:31:14.971Z,25.98
2023-08-15T10:32:14.912Z,26.00
2023-08-15T10:33:14.971Z,25.94
2023-08-15T10:34:14.887Z,25.81
2023-08-15T10:35:14.896Z,25.72
2023-08-15T10:36:14.864Z,25.69
2023-08-15T10:37:14.859Z,25.59
2023-08-15T10:38:14.851Z,25.63
2023-08-15T10:39:14.839Z,25.71
2023-08-15T10:40:14.851Z,25.72
2023-08-15T10:41:14.816Z,25.67
2023-08-15T10:42:14.798Z,25.66
2023-08-15T10:43:14.791Z,25.66
2023-08-15T10:44:14.788Z,25.66
2023-08-15T10:45:14.787Z,25.74
2023-08-15T10:46:14.776Z,25.83
2023-08-15T10:47:14.753Z,25.93
2023-08-15T10:48:14.798Z,26.00
2023-08-15T10:49:14.747Z,26.09
2023-08-15T10:50:14.727Z,26.19
2023-08-15T10:51:14.725Z,26.20
2023-08-15T10:52:14.687Z,26.20
2023-08-15T10:53:16.679Z,26.12
2023-08-15T10:54:14.936Z,26.12
2023-08-15T10:55:14.688Z,26.20
2023-08-15T10:56:14.675Z,26.21
2023-08-15T10:57:14.637Z,26.17
2023-08-15T10:58:14.628Z,26.27
2023-08-15T10:59:14.682Z,26.31
2023-08-15T11:00:14.599Z,26.41
2023-08-15T11:01:14.596Z,26.42
2023-08-15T11:02:14.609Z,26.41
2023-08-15T11:03:14.625Z,26.34
2023-08-15T11:04:14.563Z,26.20
2023-08-15T11:05:14.585Z,26.13
2023-08-15T11:06:14.536Z,26.16
2023-08-15T11:07:14.535Z,26.23
2023-08-15T11:08:14.524Z,26.32
2023-08-15T11:09:14.509Z,26.29
2023-08-15T11:10:14.513Z,26.32
2023-08-15T11:11:14.488Z,26.34
2023-08-15T11:12:14.498Z,26.44
2023-08-15T11:13:14.484Z,26.47
2023-08-15T11:14:14.474Z,26.46
2023-08-15T11:15:14.440Z,26.46
2023-08-15T11:16:14.463Z,26.35
2023-08-15T11:17:14.448Z,26.27
2023-08-15T11:18:14.404Z,26.21
2023-08-15T11:19:14.396Z,26.20
2023-08-15T11:20:14.383Z,26.19
2023-08-15T11:21:14.395Z,26.20
2023-08-15T11:22:14.372Z,26.28
2023-08-15T11:23:14.354Z,26.31
2023-08-15T11:24:14.351Z,26.32
2023-08-15T11:25:14.343Z,26.31
2023-08-15T11:26:14.347Z,26.29
2023-08-15T11:27:14.336Z,26.24
2023-08-15T11:28:14.326Z,26.20
2023-08-15T11:29:14.771Z,26.21
2023-08-15T11:30:14.275Z,26.20
2023-08-15T11:32:14.297Z,26.36
2023-08-15T11:33:14.247Z,26.49
2023-08-15T11:34:14.229Z,26.59
2023-08-15T11:35:14.230Z,26.61
2023-08-15T11:36:14.258Z,26.54
2023-08-15T11:37:14.202Z,26.50
2023-08-15T11:38:14.192Z,26.39
2023-08-15T11:39:14.440Z,26.36
2023-08-15T11:40:14.166Z,26.32
2023-08-15T11:41:14.170Z,26.31
2023-08-15T11:42:16.028Z,26.34
2023-08-15T11:43:14.173Z,26.35
2023-08-15T11:44:14.123Z,26.34
2023-08-15T11:45:14.130Z,26.34
2023-08-15T11:46:14.192Z,26.31
2023-08-15T11:47:14.097Z,26.27
2023-08-15T11:48:14.945Z,26.24
2023-08-15T11:49:14.077Z,26.23
2023-08-15T11:50:14.075Z,26.16
2023-08-15T11:51:14.052Z,26.13
2023-08-15T11:52:14.044Z,25.97
2023-08-15T11:53:14.046Z,26.00
2023-08-15T11:54:14.022Z,26.00
2023-08-15T11:55:14.043Z,26.03
2023-08-15T11:56:14.001Z,26.06
2023-08-15T11:57:14.057Z,26.11
2023-08-15T11:58:13.981Z,26.16
2023-08-15T11:59:13.976Z,26.21
2023-08-15T12:00:13.982Z,26.27
2023-08-15T12:01:13.985Z,26.31
2023-08-15T12:02:13.943Z,26.35
2023-08-15T12:03:14.053Z,26.41
2023-08-15T12:04:13.921Z,26.46
2023-08-15T12:05:13.910Z,26.50
2023-08-15T12:06:13.921Z,26.53
2023-08-15T12:07:13.878Z,26.44
2023-08-15T12:08:13.867Z,26.42
2023-08-15T12:09:14.115Z,26.46
2023-08-15T12:10:13.858Z,26.46
2023-08-15T12:11:13.888Z,26.51
2023-08-15T12:12:13.831Z,26.50
2023-08-15T12:13:13.827Z,26.47
2023-08-15T12:14:13.814Z,26.44
2023-08-15T12:15:13.806Z,26.49
2023-08-15T12:16:13.847Z,26.53
2023-08-15T12:17:13.784Z,26.59
2023-08-15T12:18:13.791Z,26.59
2023-08-15T12:19:13.764Z,26.59
2023-08-15T12:20:13.737Z,26.56
2023-08-15T12:21:14.241Z,26.50
2023-08-15T12:22:13.718Z,26.44
2023-08-15T12:23:22.960Z,26.36
2023-08-15T12:24:13.701Z,26.32
2023-08-15T12:25:13.693Z,26.23
2023-08-15T12:26:13.681Z,26.19
2023-08-15T12:27:13.669Z,26.23
2023-08-15T12:28:13.660Z,26.27
2023-08-15T12:29:13.937Z,26.24
2023-08-15T12:30:16.560Z,26.27
2023-08-15T12:31:13.639Z,26.23
2023-08-15T12:32:13.615Z,26.20
2023-08-15T12:33:16.066Z,26.27
2023-08-15T12:34:13.590Z,26.27
2023-08-15T12:35:13.585Z,26.28
2023-08-15T12:36:13.576Z,26.27
2023-08-15T12:37:13.583Z,26.21
2023-08-15T12:38:13.547Z,26.23
2023-08-15T12:39:13.541Z,26.19
2023-08-15T12:40:22.042Z,26.20
2023-08-15T12:41:13.523Z,26.21
2023-08-15T12:42:13.515Z,26.23
2023-08-15T12:43:13.505Z,26.28
2023-08-15T12:44:13.497Z,26.29
2023-08-15T12:45:13.483Z,26.29
2023-08-15T12:46:13.672Z,26.32
2023-08-15T12:47:13.463Z,26.31
2023-08-15T12:48:13.460Z,26.27
2023-08-15T12:49:13.433Z,26.24
2023-08-15T12:50:13.419Z,26.17
2023-08-15T12:51:13.417Z,26.17
2023-08-15T12:52:13.390Z,26.17
2023-08-15T12:53:13.394Z,26.16